Time;durP1;ratioP1;P1;durP2;ratioP2;P2;SDS_P1;SDS_P2;PMS_P1;PMS_P2;Temp;Humidity;BMP_temperature;BMP_pressure;BME280_temperature;BME280_humidity;BME280_pressure;Samples;Min_cycle;Max_cycle;Signal;HPM_P1;HPM_P2
2023/12/12 00:01:35;;;;;;;144.00;133.93;;;5.60;99.90;;;;;;12620801;28;20051;-35
2023/12/12 00:07:38;;;;;;;144.43;134.02;;;5.60;99.90;;;;;;12605018;28;20045;-35
2023/12/12 00:13:40;;;;;;;142.85;133.00;;;5.60;99.90;;;;;;12598091;28;20079;-35
2023/12/12 00:19:45;;;;;;;138.40;128.60;;;5.70;99.90;;;;;;12628775;28;20083;-35
2023/12/12 00:25:47;;;;;;;139.85;130.02;;;5.90;99.90;;;;;;12621513;28;20050;-35
2023/12/12 00:31:49;;;;;;;149.20;138.75;;;6.00;99.90;;;;;;12599119;28;20409;-35
2023/12/12 00:37:50;;;;;;;162.55;151.15;;;6.00;99.90;;;;;;12611377;28;20075;-35
2023/12/12 00:43:52;;;;;;;170.80;157.88;;;5.90;99.90;;;;;;12613833;28;20048;-35
2023/12/12 00:49:54;;;;;;;168.43;156.57;;;5.90;99.90;;;;;;12626869;28;20048;-36
2023/12/12 00:55:56;;;;;;;170.73;158.30;;;5.90;99.90;;;;;;12623231;28;20047;-35
2023/12/12 01:01:58;;;;;;;165.88;153.88;;;5.90;99.90;;;;;;12588506;28;20052;-35
2023/12/12 01:08:00;;;;;;;163.52;151.93;;;6.00;99.90;;;;;;12614331;28;20134;-35
2023/12/12 01:14:02;;;;;;;165.80;154.07;;;6.00;99.90;;;;;;12624270;28;20459;-35
2023/12/12 01:20:07;;;;;;;160.30;148.75;;;6.10;99.90;;;;;;12624400;28;20051;-35
2023/12/12 01:26:09;;;;;;;158.50;147.00;;;6.10;99.90;;;;;;12616261;28;20055;-35
2023/12/12 01:32:11;;;;;;;167.13;155.32;;;6.20;99.90;;;;;;12611066;28;20079;-35
2023/12/12 01:38:13;;;;;;;159.82;148.23;;;6.20;99.90;;;;;;12615730;28;20124;-35
2023/12/12 01:44:15;;;;;;;164.18;152.40;;;6.20;99.90;;;;;;12618350;28;20056;-36
2023/12/12 01:50:18;;;;;;;168.32;156.23;;;6.10;99.90;;;;;;12617246;28;20044;-35
2023/12/12 01:56:21;;;;;;;167.85;155.38;;;6.10;99.90;;;;;;12623014;28;20405;-36
2023/12/12 02:02:23;;;;;;;168.60;155.82;;;6.20;99.90;;;;;;12603079;28;20049;-35
2023/12/12 02:08:28;;;;;;;175.73;162.63;;;6.20;99.90;;;;;;12617754;28;20086;-36
2023/12/12 02:14:33;;;;;;;177.30;164.15;;;6.20;99.90;;;;;;12614252;28;20044;-36
2023/12/12 02:20:35;;;;;;;179.52;166.73;;;6.20;99.90;;;;;;12620410;28;20134;-36
2023/12/12 02:26:37;;;;;;;177.63;164.75;;;6.20;99.90;;;;;;12621389;28;20044;-35
2023/12/12 02:32:39;;;;;;;178.93;166.15;;;6.20;99.90;;;;;;12629160;28;20512;-35
2023/12/12 02:38:41;;;;;;;180.77;167.88;;;6.20;99.90;;;;;;12628410;28;20071;-35
2023/12/12 02:44:42;;;;;;;181.60;168.23;;;6.20;99.90;;;;;;12611406;28;20087;-35
2023/12/12 02:50:44;;;;;;;190.05;176.75;;;6.20;99.90;;;;;;12623071;28;20070;-35
2023/12/12 02:56:46;;;;;;;189.95;176.57;;;6.30;99.90;;;;;;12643494;28;20048;-35
2023/12/12 03:02:48;;;;;;;184.98;172.02;;;6.20;99.90;;;;;;12618462;28;20048;-35
2023/12/12 03:08:50;;;;;;;194.80;181.43;;;6.20;99.90;;;;;;12593538;28;20414;-35
2023/12/12 03:14:52;;;;;;;200.30;186.50;;;6.20;99.90;;;;;;12639098;28;20052;-36
2023/12/12 03:20:53;;;;;;;210.95;196.55;;;6.20;99.90;;;;;;12620929;28;20048;-35
2023/12/12 03:26:55;;;;;;;224.48;209.85;;;6.30;99.90;;;;;;12639115;28;20051;-36
2023/12/12 03:32:59;;;;;;;220.43;205.65;;;6.30;99.90;;;;;;12626541;28;20048;-35
2023/12/12 03:39:01;;;;;;;215.10;200.65;;;6.20;99.90;;;;;;12616360;28;20044;-36
2023/12/12 03:45:04;;;;;;;217.10;202.45;;;6.20;99.90;;;;;;12611958;28;20042;-34
2023/12/12 03:51:12;;;;;;;216.52;201.80;;;6.20;99.90;;;;;;12611560;28;20048;-35
2023/12/12 03:57:14;;;;;;;211.38;196.82;;;6.20;99.90;;;;;;12613641;28;20048;-36
2023/12/12 04:03:16;;;;;;;204.25;190.07;;;6.20;99.90;;;;;;12613372;28;20048;-35
2023/12/12 04:09:18;;;;;;;212.20;197.70;;;6.30;99.90;;;;;;12595205;28;20170;-35
2023/12/12 04:15:20;;;;;;;205.35;191.68;;;6.30;99.90;;;;;;12603809;28;20056;-35
2023/12/12 04:21:22;;;;;;;219.13;204.52;;;6.30;99.90;;;;;;12618103;28;20068;-35
2023/12/12 04:27:23;;;;;;;227.02;212.32;;;6.30;99.90;;;;;;12605620;28;20067;-35
2023/12/12 04:33:25;;;;;;;222.00;206.95;;;6.30;99.90;;;;;;12603329;28;20045;-35
2023/12/12 04:39:27;;;;;;;223.35;208.30;;;6.30;99.90;;;;;;12613182;28;20164;-35
2023/12/12 04:45:29;;;;;;;215.52;201.02;;;6.30;99.90;;;;;;12606036;28;20053;-36
2023/12/12 04:51:31;;;;;;;211.23;196.95;;;6.30;99.90;;;;;;12608715;28;20059;-35
2023/12/12 04:57:33;;;;;;;193.20;180.13;;;6.20;99.90;;;;;;12610168;28;20067;-35
2023/12/12 05:03:35;;;;;;;180.15;167.57;;;6.30;99.90;;;;;;12600794;28;20138;-35
2023/12/12 05:09:37;;;;;;;167.65;155.82;;;6.20;99.90;;;;;;12594960;28;20089;-35
2023/12/12 05:15:39;;;;;;;162.55;150.85;;;6.30;99.90;;;;;;12613845;28;20770;-35
2023/12/12 05:21:42;;;;;;;158.18;146.63;;;6.30;99.90;;;;;;12601316;28;20528;-35
2023/12/12 05:27:44;;;;;;;170.32;157.82;;;6.30;99.90;;;;;;12598192;28;20075;-35
2023/12/12 05:33:46;;;;;;;184.73;171.43;;;6.40;99.90;;;;;;12594722;28;20121;-35
2023/12/12 05:39:49;;;;;;;177.43;164.43;;;6.50;99.90;;;;;;12607401;28;20048;-35
2023/12/12 05:45:52;;;;;;;175.27;162.40;;;6.40;99.90;;;;;;12598332;28;20056;-36
2023/12/12 05:51:55;;;;;;;173.15;160.43;;;6.50;99.90;;;;;;12597888;28;20044;-35
2023/12/12 05:57:58;;;;;;;181.75;168.32;;;6.50;99.90;;;;;;12615262;28;20060;-36
2023/12/12 06:04:01;;;;;;;195.73;181.48;;;6.40;99.90;;;;;;12605216;28;20549;-35
2023/12/12 06:10:05;;;;;;;196.45;182.05;;;6.40;99.90;;;;;;12605696;28;20051;-35
2023/12/12 06:16:07;;;;;;;208.43;193.07;;;6.50;99.90;;;;;;12614716;28;20052;-36
2023/12/12 06:22:09;;;;;;;202.48;187.15;;;6.60;99.90;;;;;;12596950;28;20405;-35
2023/12/12 06:28:11;;;;;;;214.00;198.93;;;6.60;99.90;;;;;;12609727;28;20503;-36
2023/12/12 06:34:13;;;;;;;214.27;198.73;;;6.50;99.90;;;;;;12618391;28;20044;-35
2023/12/12 06:40:15;;;;;;;203.45;188.15;;;6.40;99.90;;;;;;12608658;28;20048;-36
2023/12/12 06:46:18;;;;;;;216.50;200.98;;;6.50;99.90;;;;;;12613765;28;20102;-35
2023/12/12 06:52:21;;;;;;;203.93;189.10;;;6.50;99.90;;;;;;12617862;28;20397;-35
2023/12/12 06:58:24;;;;;;;212.23;196.20;;;6.40;99.90;;;;;;12612763;28;20064;-35
2023/12/12 07:04:26;;;;;;;214.65;198.23;;;6.40;99.90;;;;;;12626190;28;20048;-34
2023/12/12 07:10:28;;;;;;;210.43;195.07;;;6.40;99.90;;;;;;12627497;28;20101;-35
2023/12/12 07:16:30;;;;;;;214.27;198.80;;;6.40;99.90;;;;;;12608142;28;20554;-35
2023/12/12 07:22:32;;;;;;;216.60;200.90;;;6.50;99.90;;;;;;12610665;28;20125;-36
2023/12/12 07:28:35;;;;;;;218.70;202.90;;;6.50;99.90;;;;;;12596056;28;20475;-36
2023/12/12 07:34:37;;;;;;;219.65;203.60;;;6.50;99.90;;;;;;12611194;28;20047;-36
2023/12/12 07:40:39;;;;;;;224.80;208.35;;;6.50;99.90;;;;;;12611933;28;20135;-36
2023/12/12 07:46:41;;;;;;;231.18;214.43;;;6.60;99.90;;;;;;12636457;28;20179;-35
2023/12/12 07:52:43;;;;;;;228.63;211.80;;;6.50;99.90;;;;;;12641725;28;20504;-35
2023/12/12 07:58:45;;;;;;;236.00;219.40;;;6.60;99.90;;;;;;12637563;28;20071;-36
2023/12/12 08:04:47;;;;;;;247.38;229.88;;;6.60;99.90;;;;;;12606100;28;20097;-36
2023/12/12 08:10:50;;;;;;;243.73;226.52;;;6.60;99.90;;;;;;12592851;28;20080;-36
2023/12/12 08:16:52;;;;;;;244.07;226.57;;;6.70;99.90;;;;;;12611917;28;20052;-37
2023/12/12 08:22:54;;;;;;;224.73;208.55;;;6.70;99.90;;;;;;12618994;28;20529;-36
2023/12/12 08:28:55;;;;;;;216.48;200.48;;;6.90;99.90;;;;;;12602985;28;20068;-36
2023/12/12 08:34:57;;;;;;;213.57;197.73;;;7.00;99.90;;;;;;12618719;28;20055;-35
2023/12/12 08:40:59;;;;;;;213.73;197.18;;;7.00;99.90;;;;;;12603941;28;20425;-35
2023/12/12 08:47:01;;;;;;;210.05;194.02;;;7.10;99.90;;;;;;12598575;28;20136;-35
2023/12/12 08:53:03;;;;;;;205.75;190.55;;;7.30;99.90;;;;;;12611581;28;20048;-36
2023/12/12 08:59:05;;;;;;;226.18;209.98;;;7.50;99.90;;;;;;12609689;28;20136;-36
2023/12/12 09:05:08;;;;;;;219.80;204.38;;;7.60;99.90;;;;;;12629615;28;20421;-35
2023/12/12 09:11:10;;;;;;;237.68;221.15;;;7.80;99.90;;;;;;12637091;28;20079;-35
2023/12/12 09:17:15;;;;;;;242.43;225.27;;;7.90;99.90;;;;;;12609538;28;20053;-35
2023/12/12 09:23:17;;;;;;;253.35;235.95;;;7.70;99.90;;;;;;12601379;28;20056;-35
2023/12/12 09:29:19;;;;;;;241.95;224.80;;;7.60;99.90;;;;;;12619471;28;20198;-35
2023/12/12 09:35:21;;;;;;;230.80;213.85;;;7.50;99.90;;;;;;12607891;28;20043;-36
2023/12/12 09:41:24;;;;;;;218.20;201.98;;;7.40;99.90;;;;;;12610846;28;20048;-35
2023/12/12 09:47:30;;;;;;;209.90;194.10;;;7.30;99.90;;;;;;12601644;28;20052;-36
2023/12/12 09:53:35;;;;;;;212.07;196.38;;;7.40;99.90;;;;;;12603145;28;20112;-35
2023/12/12 09:59:39;;;;;;;211.52;195.80;;;7.50;99.90;;;;;;12602637;28;20500;-36
2023/12/12 10:05:50;;;;;;;205.20;190.30;;;7.50;99.90;;;;;;12602408;28;20473;-36
2023/12/12 10:11:52;;;;;;;189.23;174.80;;;7.70;99.90;;;;;;12607984;28;20044;-36
2023/12/12 10:17:58;;;;;;;163.15;149.93;;;7.70;99.90;;;;;;12605393;28;20071;-35
2023/12/12 10:24:01;;;;;;;165.65;152.52;;;7.80;99.90;;;;;;12603826;28;20056;-36
2023/12/12 10:30:05;;;;;;;166.82;153.38;;;7.80;99.90;;;;;;12609977;28;20398;-36
2023/12/12 10:36:10;;;;;;;146.93;134.45;;;7.90;99.90;;;;;;12619322;28;20049;-36
2023/12/12 10:42:12;;;;;;;151.80;138.88;;;8.10;99.90;;;;;;12614254;28;20048;-36
2023/12/12 10:48:18;;;;;;;147.48;134.98;;;8.20;99.90;;;;;;12618841;28;20129;-36
2023/12/12 10:54:22;;;;;;;137.35;126.03;;;8.10;99.90;;;;;;12618019;28;20084;-36
2023/12/12 11:00:26;;;;;;;141.57;129.80;;;8.10;99.90;;;;;;12609472;28;20052;-36
2023/12/12 11:06:29;;;;;;;127.87;117.87;;;8.20;99.90;;;;;;12625582;28;20060;-36
2023/12/12 11:12:31;;;;;;;138.30;127.07;;;8.40;99.90;;;;;;12606444;28;20060;-36
2023/12/12 11:18:37;;;;;;;128.90;118.28;;;8.40;99.90;;;;;;12622417;28;20087;-36
2023/12/12 11:25:00;;;;;;;130.02;119.47;;;8.40;99.90;;;;;;12582031;28;20056;-36
2023/12/12 11:31:03;;;;;;;124.78;114.25;;;8.50;99.90;;;;;;12621198;28;20039;-36
2023/12/12 11:37:05;;;;;;;123.68;112.57;;;8.50;99.90;;;;;;12617216;28;20055;-35
2023/12/12 11:43:25;;;;;;;128.80;117.30;;;8.40;99.90;;;;;;12607316;28;20090;-36
2023/12/12 11:49:28;;;;;;;114.97;104.68;;;8.40;99.90;;;;;;12610224;28;20151;-36
2023/12/12 11:55:36;;;;;;;109.43;99.80;;;8.40;99.90;;;;;;12614962;28;20449;-35
2023/12/12 12:01:38;;;;;;;117.30;106.85;;;8.40;99.90;;;;;;12627397;28;20044;-36
2023/12/12 12:07:40;;;;;;;116.68;105.78;;;8.40;99.90;;;;;;12595231;28;20540;-36
2023/12/12 12:13:43;;;;;;;109.93;100.38;;;8.40;99.90;;;;;;12602923;28;20061;-36
2023/12/12 12:19:45;;;;;;;108.50;98.65;;;8.30;99.90;;;;;;12603512;28;20055;-36
2023/12/12 12:25:49;;;;;;;113.85;103.80;;;8.40;99.90;;;;;;12590008;28;20127;-36
2023/12/12 12:31:54;;;;;;;107.20;97.38;;;8.40;99.90;;;;;;12583688;28;20056;-36
2023/12/12 12:37:57;;;;;;;106.38;96.88;;;8.40;99.90;;;;;;12609945;28;20079;-36
2023/12/12 12:43:59;;;;;;;101.68;92.43;;;8.40;99.90;;;;;;12619305;28;20052;-36
2023/12/12 12:50:01;;;;;;;100.82;91.35;;;8.40;99.90;;;;;;12600501;28;20502;-36
2023/12/12 12:56:04;;;;;;;101.93;92.93;;;8.50;99.90;;;;;;12624393;28;20056;-36
2023/12/12 13:02:07;;;;;;;102.10;92.30;;;8.60;99.90;;;;;;12623364;28;20056;-36
2023/12/12 13:08:09;;;;;;;98.32;89.82;;;8.80;99.90;;;;;;12622585;28;20055;-35
2023/12/12 13:14:11;;;;;;;99.43;90.70;;;8.90;99.90;;;;;;12613197;28;20490;-36
2023/12/12 13:20:13;;;;;;;103.10;93.72;;;8.90;99.90;;;;;;12622458;28;20052;-36
2023/12/12 13:26:15;;;;;;;104.95;95.90;;;8.90;99.90;;;;;;12607083;28;20059;-35
2023/12/12 13:32:17;;;;;;;108.78;98.28;;;8.90;99.90;;;;;;12586584;28;20043;-35
2023/12/12 13:38:19;;;;;;;100.15;91.35;;;8.80;99.90;;;;;;12604480;28;20162;-35
2023/12/12 13:44:21;;;;;;;95.18;86.70;;;8.80;99.90;;;;;;12611939;28;20059;-36
2023/12/12 13:50:23;;;;;;;99.53;90.63;;;9.00;99.90;;;;;;12622809;28;20052;-36
2023/12/12 13:56:26;;;;;;;105.50;96.07;;;9.10;99.90;;;;;;12631964;28;20044;-35
2023/12/12 14:02:27;;;;;;;101.35;92.35;;;9.20;99.90;;;;;;12620679;28;20040;-36
2023/12/12 14:08:34;;;;;;;99.85;90.78;;;9.20;99.90;;;;;;12615228;28;20048;-36
2023/12/12 14:14:36;;;;;;;101.53;91.88;;;9.20;99.90;;;;;;12623660;28;20044;-36
2023/12/12 14:20:38;;;;;;;96.97;88.00;;;9.10;99.90;;;;;;12628461;28;20044;-36
2023/12/12 14:26:40;;;;;;;100.68;91.22;;;9.00;99.90;;;;;;12617422;28;20051;-35
2023/12/12 14:32:42;;;;;;;101.35;92.05;;;8.80;99.90;;;;;;12608021;28;20060;-36
2023/12/12 14:38:44;;;;;;;101.38;91.80;;;8.60;99.90;;;;;;12601661;28;20051;-36
2023/12/12 14:44:46;;;;;;;103.18;93.72;;;8.50;99.90;;;;;;12614086;28;20048;-36
2023/12/12 14:50:48;;;;;;;100.78;91.13;;;8.30;99.90;;;;;;12606174;28;20089;-35
2023/12/12 14:56:50;;;;;;;95.65;86.80;;;8.20;99.90;;;;;;12626519;28;20052;-36
2023/12/12 15:02:55;;;;;;;;;;;8.10;99.90;;;;;;12614788;28;20429;-36
2023/12/12 15:08:59;;;;;;;85.47;77.63;;;8.00;99.90;;;;;;12620906;28;20011;-36
2023/12/12 15:15:01;;;;;;;86.13;78.13;;;8.00;99.90;;;;;;12619710;28;20048;-35
2023/12/12 15:21:04;;;;;;;89.93;81.50;;;7.90;99.90;;;;;;12633717;28;20067;-36
2023/12/12 15:27:09;;;;;;;88.97;80.80;;;7.80;99.90;;;;;;12635416;28;20052;-35
2023/12/12 15:33:11;;;;;;;86.40;77.93;;;7.70;99.90;;;;;;12597647;28;20040;-35
2023/12/12 15:39:14;;;;;;;86.13;77.82;;;7.70;99.90;;;;;;12611748;28;20036;-36
2023/12/12 15:45:16;;;;;;;87.28;79.38;;;7.70;99.90;;;;;;12614066;28;20051;-35
2023/12/12 15:51:19;;;;;;;89.50;80.80;;;7.80;99.90;;;;;;12605913;28;20036;-37
2023/12/12 15:57:21;;;;;;;85.88;77.88;;;7.80;99.90;;;;;;12631280;28;20040;-35
2023/12/12 16:03:24;;;;;;;84.28;76.20;;;7.80;99.90;;;;;;12612619;28;20066;-36
2023/12/12 16:09:26;;;;;;;83.35;75.70;;;7.90;99.90;;;;;;12597362;28;20171;-35
2023/12/12 16:15:27;;;;;;;84.72;76.80;;;7.90;99.90;;;;;;12620929;28;20060;-36
2023/12/12 16:21:29;;;;;;;82.80;75.10;;;8.00;99.90;;;;;;12603544;28;20051;-35
2023/12/12 16:27:32;;;;;;;85.40;77.47;;;8.00;99.90;;;;;;12612000;28;20056;-35
2023/12/12 16:33:34;;;;;;;83.00;75.50;;;8.00;99.90;;;;;;12601625;28;20475;-35
2023/12/12 16:39:36;;;;;;;87.07;79.38;;;8.10;99.90;;;;;;12607822;28;20047;-36
2023/12/12 16:45:38;;;;;;;85.00;77.07;;;8.00;99.90;;;;;;12609061;28;20546;-36
2023/12/12 16:51:40;;;;;;;88.07;79.70;;;8.00;99.90;;;;;;12597662;28;20051;-36
2023/12/12 16:57:42;;;;;;;91.75;83.25;;;8.10;99.90;;;;;;12605960;28;20090;-35
2023/12/12 17:03:43;;;;;;;90.68;82.30;;;8.20;99.90;;;;;;12619918;28;20087;-35
2023/12/12 17:09:45;;;;;;;88.68;80.45;;;8.10;99.90;;;;;;12606320;28;20055;-35
2023/12/12 17:15:54;;;;;;;90.43;81.95;;;8.10;99.90;;;;;;12606080;28;20086;-36
2023/12/12 17:21:56;;;;;;;92.82;84.10;;;8.00;99.90;;;;;;12596054;28;20055;-36
2023/12/12 17:27:57;;;;;;;88.97;80.43;;;8.00;99.90;;;;;;12592355;28;20040;-36
2023/12/12 17:33:59;;;;;;;96.25;87.55;;;8.00;99.90;;;;;;12602453;28;20051;-35
2023/12/12 17:40:01;;;;;;;107.40;98.32;;;7.90;99.90;;;;;;12629373;28;20049;-35
2023/12/12 17:46:03;;;;;;;123.63;114.03;;;7.70;99.90;;;;;;12614347;28;20060;-36
2023/12/12 17:52:05;;;;;;;136.10;126.10;;;7.60;99.90;;;;;;12629385;28;20614;-35
2023/12/12 17:58:07;;;;;;;146.02;135.38;;;7.50;99.90;;;;;;12617216;28;20475;-35
2023/12/12 18:04:09;;;;;;;155.60;144.20;;;7.40;99.90;;;;;;12600430;28;20057;-36
2023/12/12 18:10:12;;;;;;;156.68;145.50;;;7.40;99.90;;;;;;12601395;28;20063;-35
2023/12/12 18:16:14;;;;;;;161.13;149.98;;;7.40;99.90;;;;;;12604219;28;20109;-35
2023/12/12 18:22:16;;;;;;;182.25;169.75;;;7.40;99.90;;;;;;12600274;28;20049;-36
2023/12/12 18:28:18;;;;;;;191.07;177.90;;;7.50;99.90;;;;;;12614021;28;20048;-36
2023/12/12 18:34:21;;;;;;;208.23;194.02;;;7.50;99.90;;;;;;12619656;28;20397;-35
2023/12/12 18:40:23;;;;;;;211.70;197.27;;;7.50;99.90;;;;;;12628600;28;20421;-35
2023/12/12 18:46:25;;;;;;;205.80;192.00;;;7.40;99.90;;;;;;12618124;28;20057;-36
2023/12/12 18:52:27;;;;;;;191.80;178.65;;;7.40;99.90;;;;;;12621606;28;20036;-36
2023/12/12 18:58:30;;;;;;;188.43;175.40;;;7.40;99.90;;;;;;12630031;28;20068;-36
2023/12/12 19:04:32;;;;;;;206.05;192.18;;;7.40;99.90;;;;;;12608193;28;20295;-36
2023/12/12 19:10:36;;;;;;;205.30;191.48;;;7.50;99.90;;;;;;12606075;28;20122;-36
2023/12/12 19:16:39;;;;;;;198.83;185.13;;;7.50;99.90;;;;;;12615475;28;20132;-35
2023/12/12 19:22:41;;;;;;;194.90;181.30;;;7.50;99.90;;;;;;12613484;28;20143;-36
2023/12/12 19:28:43;;;;;;;196.80;183.55;;;7.50;99.90;;;;;;12602630;28;20056;-36
2023/12/12 19:34:45;;;;;;;182.52;169.60;;;7.60;99.90;;;;;;12601202;28;20087;-36
2023/12/12 19:40:52;;;;;;;177.45;164.77;;;7.60;99.90;;;;;;12616120;28;20470;-35
2023/12/12 19:46:54;;;;;;;179.40;166.57;;;7.60;99.90;;;;;;12603717;28;20055;-35
2023/12/12 19:52:56;;;;;;;185.43;172.15;;;7.50;99.90;;;;;;12603182;28;20375;-36
2023/12/12 19:58:58;;;;;;;197.05;183.43;;;7.50;99.90;;;;;;12628126;28;20127;-35
2023/12/12 20:05:00;;;;;;;203.27;189.30;;;7.60;99.90;;;;;;12646431;28;20181;-36
2023/12/12 20:11:02;;;;;;;203.77;189.80;;;7.50;99.90;;;;;;12603964;28;20071;-36
2023/12/12 20:17:04;;;;;;;206.18;192.25;;;7.50;99.90;;;;;;12612814;28;20044;-36
2023/12/12 20:23:06;;;;;;;233.45;218.40;;;7.50;99.90;;;;;;12597998;28;20080;-35
2023/12/12 20:29:08;;;;;;;248.68;232.40;;;7.50;99.90;;;;;;12615324;28;20127;-36
2023/12/12 20:35:10;;;;;;;257.88;241.20;;;7.50;99.90;;;;;;12605366;28;20037;-36
2023/12/12 20:41:12;;;;;;;263.83;246.27;;;7.50;99.90;;;;;;12608034;28;20430;-36
2023/12/12 20:47:14;;;;;;;269.38;252.32;;;7.40;99.90;;;;;;12613940;28;20059;-35
2023/12/12 20:53:16;;;;;;;269.35;252.05;;;7.40;99.90;;;;;;12611129;28;20120;-35
2023/12/12 20:59:18;;;;;;;275.45;257.98;;;7.40;99.90;;;;;;12596279;28;20041;-37
2023/12/12 21:05:20;;;;;;;271.08;253.90;;;7.40;99.90;;;;;;12617821;28;20056;-36
2023/12/12 21:11:23;;;;;;;280.48;262.35;;;7.40;99.90;;;;;;12602803;28;20044;-36
2023/12/12 21:17:25;;;;;;;265.40;248.35;;;7.40;99.90;;;;;;12588341;28;20057;-35
2023/12/12 21:23:27;;;;;;;296.23;276.98;;;7.50;99.90;;;;;;12599062;28;20056;-36
2023/12/12 21:29:31;;;;;;;309.40;290.58;;;7.50;99.90;;;;;;12602279;28;20482;-36
2023/12/12 21:35:33;;;;;;;326.35;306.30;;;7.50;99.90;;;;;;12630083;28;20777;-36
2023/12/12 21:41:39;;;;;;;319.15;299.17;;;7.50;99.90;;;;;;12610271;28;20850;-36
2023/12/12 21:47:41;;;;;;;319.75;299.60;;;7.60;99.90;;;;;;12610245;28;20060;-35
2023/12/12 21:53:43;;;;;;;332.30;311.73;;;7.50;99.90;;;;;;12593614;28;20061;-36
2023/12/12 21:59:45;;;;;;;322.30;302.23;;;7.50;99.90;;;;;;12614032;28;20483;-36
2023/12/12 22:05:47;;;;;;;319.05;298.92;;;7.60;99.90;;;;;;12594795;28;20052;-35
2023/12/12 22:11:50;;;;;;;317.45;297.50;;;7.50;99.90;;;;;;12595497;28;20401;-35
2023/12/12 22:17:52;;;;;;;311.95;292.52;;;7.40;99.90;;;;;;12613231;28;20062;-36
2023/12/12 22:23:55;;;;;;;307.40;288.15;;;7.40;99.90;;;;;;12628176;28;20052;-36
2023/12/12 22:29:57;;;;;;;302.25;283.27;;;7.40;99.90;;;;;;12614392;28;20084;-36
2023/12/12 22:35:59;;;;;;;307.08;288.00;;;7.40;99.90;;;;;;12605509;28;20036;-36
2023/12/12 22:42:01;;;;;;;307.42;288.20;;;7.40;99.90;;;;;;12607118;28;20052;-36
2023/12/12 22:48:03;;;;;;;321.23;301.27;;;7.50;99.90;;;;;;12613976;28;20076;-35
2023/12/12 22:54:05;;;;;;;312.63;293.25;;;7.50;99.90;;;;;;12605697;28;20529;-36
2023/12/12 23:06:28;;;;;;;320.17;300.52;;;7.40;99.90;;;;;;12600935;28;20135;-36
2023/12/12 23:12:30;;;;;;;310.45;290.95;;;7.40;99.90;;;;;;12606449;28;20040;-36
2023/12/12 23:18:32;;;;;;;303.65;284.58;;;7.40;99.90;;;;;;12554976;28;20048;-36
2023/12/12 23:24:34;;;;;;;305.35;286.25;;;7.50;99.90;;;;;;12552153;28;20049;-36
2023/12/12 23:30:36;;;;;;;305.58;286.77;;;7.60;99.90;;;;;;12570270;28;20056;-36
2023/12/12 23:36:42;;;;;;;298.17;280.00;;;7.60;99.90;;;;;;12571476;28;20087;-36
2023/12/12 23:42:44;;;;;;;306.58;287.77;;;7.60;99.90;;;;;;12560623;28;20052;-36
2023/12/12 23:48:46;;;;;;;305.05;286.20;;;7.70;99.90;;;;;;12555819;28;20053;-35
2023/12/12 23:54:48;;;;;;;305.38;286.55;;;7.80;99.90;;;;;;12571508;28;20109;-35
